sensor_id;sensor_type;location;lat;lon;timestamp;P1;durP1;ratioP1;P2;durP2;ratioP2
18473;SDS011;30265;52.408;13.500;2023-05-10T00:10:09;9.32;;;4.78;;
18473;SDS011;30265;52.408;13.500;2023-05-10T00:20:33;14.35;;;4.95;;
18473;SDS011;30265;52.408;13.500;2023-05-10T00:30:54;8.48;;;5.15;;
18473;SDS011;30265;52.408;13.500;2023-05-10T00:41:20;10.23;;;5.18;;
18473;SDS011;30265;52.408;13.500;2023-05-10T00:51:42;8.55;;;4.80;;
18473;SDS011;30265;52.408;13.500;2023-05-10T01:02:06;12.50;;;5.50;;
18473;SDS011;30265;52.408;13.500;2023-05-10T01:12:28;8.25;;;5.72;;
18473;SDS011;30265;52.408;13.500;2023-05-10T01:33:45;16.30;;;5.80;;
18473;SDS011;30265;52.408;13.500;2023-05-10T01:44:15;9.02;;;5.20;;
18473;SDS011;30265;52.408;13.500;2023-05-10T01:54:44;9.27;;;5.55;;
18473;SDS011;30265;52.408;13.500;2023-05-10T02:05:19;8.38;;;5.20;;
18473;SDS011;30265;52.408;13.500;2023-05-10T02:15:44;9.13;;;4.70;;
18473;SDS011;30265;52.408;13.500;2023-05-10T02:26:08;8.27;;;5.03;;
18473;SDS011;30265;52.408;13.500;2023-05-10T02:36:36;8.90;;;4.97;;
18473;SDS011;30265;52.408;13.500;2023-05-10T02:46:59;9.23;;;5.20;;
18473;SDS011;30265;52.408;13.500;2023-05-10T02:57:24;9.43;;;4.95;;
18473;SDS011;30265;52.408;13.500;2023-05-10T03:07:48;5.72;;;4.20;;
18473;SDS011;30265;52.408;13.500;2023-05-10T03:18:13;6.65;;;4.45;;
18473;SDS011;30265;52.408;13.500;2023-05-10T03:28:38;9.93;;;4.55;;
18473;SDS011;30265;52.408;13.500;2023-05-10T03:39:03;8.50;;;4.78;;
18473;SDS011;30265;52.408;13.500;2023-05-10T03:49:26;9.27;;;4.70;;
18473;SDS011;30265;52.408;13.500;2023-05-10T03:59:49;9.23;;;4.40;;
18473;SDS011;30265;52.408;13.500;2023-05-10T04:10:12;9.85;;;4.18;;
18473;SDS011;30265;52.408;13.500;2023-05-10T04:20:38;7.20;;;4.10;;
18473;SDS011;30265;52.408;13.500;2023-05-10T04:31:00;8.02;;;4.03;;
18473;SDS011;30265;52.408;13.500;2023-05-10T04:41:24;6.30;;;4.10;;
18473;SDS011;30265;52.408;13.500;2023-05-10T04:51:46;7.53;;;4.32;;
18473;SDS011;30265;52.408;13.500;2023-05-10T05:02:09;12.20;;;4.15;;
18473;SDS011;30265;52.408;13.500;2023-05-10T05:12:30;5.90;;;4.20;;
18473;SDS011;30265;52.408;13.500;2023-05-10T05:22:53;5.55;;;3.65;;
18473;SDS011;30265;52.408;13.500;2023-05-10T05:33:14;5.25;;;3.33;;
18473;SDS011;30265;52.408;13.500;2023-05-10T05:43:38;5.25;;;3.25;;
18473;SDS011;30265;52.408;13.500;2023-05-10T05:54:00;8.25;;;3.53;;
18473;SDS011;30265;52.408;13.500;2023-05-10T06:04:25;4.15;;;2.90;;
18473;SDS011;30265;52.408;13.500;2023-05-10T06:14:46;5.50;;;3.40;;
18473;SDS011;30265;52.408;13.500;2023-05-10T06:25:10;4.60;;;2.88;;
18473;SDS011;30265;52.408;13.500;2023-05-10T06:35:31;3.08;;;2.13;;
18473;SDS011;30265;52.408;13.500;2023-05-10T06:45:54;4.45;;;2.60;;
18473;SDS011;30265;52.408;13.500;2023-05-10T06:56:16;6.25;;;2.67;;
18473;SDS011;30265;52.408;13.500;2023-05-10T07:06:40;4.20;;;2.40;;
18473;SDS011;30265;52.408;13.500;2023-05-10T07:17:01;2.85;;;1.80;;
18473;SDS011;30265;52.408;13.500;2023-05-10T07:27:25;5.82;;;2.72;;
18473;SDS011;30265;52.408;13.500;2023-05-10T07:37:47;6.28;;;2.90;;
18473;SDS011;30265;52.408;13.500;2023-05-10T07:48:12;6.67;;;2.77;;
18473;SDS011;30265;52.408;13.500;2023-05-10T07:58:34;5.90;;;2.55;;
18473;SDS011;30265;52.408;13.500;2023-05-10T08:08:57;5.75;;;3.05;;
18473;SDS011;30265;52.408;13.500;2023-05-10T08:19:19;3.88;;;2.28;;
18473;SDS011;30265;52.408;13.500;2023-05-10T08:29:43;3.90;;;2.50;;
18473;SDS011;30265;52.408;13.500;2023-05-10T08:40:10;8.55;;;3.20;;
18473;SDS011;30265;52.408;13.500;2023-05-10T08:50:34;3.20;;;2.42;;
18473;SDS011;30265;52.408;13.500;2023-05-10T09:00:57;5.60;;;2.60;;
18473;SDS011;30265;52.408;13.500;2023-05-10T09:11:22;6.93;;;2.80;;
18473;SDS011;30265;52.408;13.500;2023-05-10T09:21:45;3.83;;;2.58;;
18473;SDS011;30265;52.408;13.500;2023-05-10T09:32:08;7.35;;;2.70;;
18473;SDS011;30265;52.408;13.500;2023-05-10T09:42:30;3.20;;;2.50;;
18473;SDS011;30265;52.408;13.500;2023-05-10T09:52:53;5.20;;;2.58;;
18473;SDS011;30265;52.408;13.500;2023-05-10T10:03:19;3.78;;;2.20;;
18473;SDS011;30265;52.408;13.500;2023-05-10T10:13:43;3.53;;;2.60;;
18473;SDS011;30265;52.408;13.500;2023-05-10T10:34:29;3.95;;;2.17;;
18473;SDS011;30265;52.408;13.500;2023-05-10T10:44:55;3.47;;;2.70;;
18473;SDS011;30265;52.408;13.500;2023-05-10T10:55:35;3.58;;;2.35;;
18473;SDS011;30265;52.408;13.500;2023-05-10T11:06:08;4.10;;;2.55;;
18473;SDS011;30265;52.408;13.500;2023-05-10T11:16:40;3.45;;;2.58;;
18473;SDS011;30265;52.408;13.500;2023-05-10T11:27:06;5.18;;;2.53;;
18473;SDS011;30265;52.408;13.500;2023-05-10T11:37:29;7.05;;;2.35;;
18473;SDS011;30265;52.408;13.500;2023-05-10T11:47:54;3.72;;;2.60;;
18473;SDS011;30265;52.408;13.500;2023-05-10T11:58:19;3.72;;;2.15;;
18473;SDS011;30265;52.408;13.500;2023-05-10T12:08:44;3.63;;;2.50;;
18473;SDS011;30265;52.408;13.500;2023-05-10T12:19:08;6.25;;;2.42;;
18473;SDS011;30265;52.408;13.500;2023-05-10T12:29:31;3.80;;;2.70;;
18473;SDS011;30265;52.408;13.500;2023-05-10T12:39:55;7.40;;;3.00;;
18473;SDS011;30265;52.408;13.500;2023-05-10T12:50:16;4.18;;;2.30;;
18473;SDS011;30265;52.408;13.500;2023-05-10T13:12:04;3.08;;;2.30;;
18473;SDS011;30265;52.408;13.500;2023-05-10T13:22:32;3.67;;;2.33;;
18473;SDS011;30265;52.408;13.500;2023-05-10T13:33:01;3.75;;;2.28;;
18473;SDS011;30265;52.408;13.500;2023-05-10T13:43:25;2.83;;;1.73;;
18473;SDS011;30265;52.408;13.500;2023-05-10T13:53:52;3.72;;;2.42;;
18473;SDS011;30265;52.408;13.500;2023-05-10T14:04:17;5.97;;;2.38;;
18473;SDS011;30265;52.408;13.500;2023-05-10T14:14:41;3.08;;;2.13;;
18473;SDS011;30265;52.408;13.500;2023-05-10T14:25:03;2.03;;;1.65;;
18473;SDS011;30265;52.408;13.500;2023-05-10T14:35:30;2.47;;;2.00;;
18473;SDS011;30265;52.408;13.500;2023-05-10T14:45:52;4.00;;;2.40;;
18473;SDS011;30265;52.408;13.500;2023-05-10T14:56:15;3.13;;;2.20;;
18473;SDS011;30265;52.408;13.500;2023-05-10T15:06:41;3.40;;;2.30;;
18473;SDS011;30265;52.408;13.500;2023-05-10T15:17:05;5.33;;;3.10;;
18473;SDS011;30265;52.408;13.500;2023-05-10T15:27:30;3.35;;;2.25;;
18473;SDS011;30265;52.408;13.500;2023-05-10T15:37:54;6.70;;;2.45;;
18473;SDS011;30265;52.408;13.500;2023-05-10T15:48:16;7.13;;;3.42;;
18473;SDS011;30265;52.408;13.500;2023-05-10T15:58:40;6.47;;;2.80;;
18473;SDS011;30265;52.408;13.500;2023-05-10T16:09:03;3.90;;;2.78;;
18473;SDS011;30265;52.408;13.500;2023-05-10T16:19:29;3.70;;;2.25;;
18473;SDS011;30265;52.408;13.500;2023-05-10T16:29:50;6.13;;;4.15;;
18473;SDS011;30265;52.408;13.500;2023-05-10T16:40:14;6.90;;;4.18;;
18473;SDS011;30265;52.408;13.500;2023-05-10T16:50:36;6.47;;;3.47;;
18473;SDS011;30265;52.408;13.500;2023-05-10T17:00:59;8.40;;;4.22;;
18473;SDS011;30265;52.408;13.500;2023-05-10T17:11:20;6.95;;;4.25;;
18473;SDS011;30265;52.408;13.500;2023-05-10T17:21:44;7.30;;;3.90;;
18473;SDS011;30265;52.408;13.500;2023-05-10T17:32:05;6.57;;;4.28;;
18473;SDS011;30265;52.408;13.500;2023-05-10T17:42:41;8.13;;;4.95;;
18473;SDS011;30265;52.408;13.500;2023-05-10T17:53:27;8.52;;;4.32;;
18473;SDS011;30265;52.408;13.500;2023-05-10T18:04:20;6.28;;;4.95;;
18473;SDS011;30265;52.408;13.500;2023-05-10T18:14:57;6.53;;;4.68;;
18473;SDS011;30265;52.408;13.500;2023-05-10T18:26:13;6.38;;;5.00;;
18473;SDS011;30265;52.408;13.500;2023-05-10T18:36:58;8.65;;;5.30;;
18473;SDS011;30265;52.408;13.500;2023-05-10T18:48:10;9.70;;;5.30;;
18473;SDS011;30265;52.408;13.500;2023-05-10T18:59:01;7.70;;;5.15;;
18473;SDS011;30265;52.408;13.500;2023-05-10T19:09:44;8.63;;;5.18;;
18473;SDS011;30265;52.408;13.500;2023-05-10T19:20:41;7.43;;;5.22;;
18473;SDS011;30265;52.408;13.500;2023-05-10T19:31:34;12.07;;;6.07;;
18473;SDS011;30265;52.408;13.500;2023-05-10T19:42:21;7.82;;;5.68;;
18473;SDS011;30265;52.408;13.500;2023-05-10T19:53:25;10.07;;;5.95;;
18473;SDS011;30265;52.408;13.500;2023-05-10T20:04:16;10.00;;;6.72;;
18473;SDS011;30265;52.408;13.500;2023-05-10T20:14:53;9.10;;;6.47;;
18473;SDS011;30265;52.408;13.500;2023-05-10T20:25:34;13.07;;;7.00;;
18473;SDS011;30265;52.408;13.500;2023-05-10T20:36:19;8.73;;;6.07;;
18473;SDS011;30265;52.408;13.500;2023-05-10T20:47:16;13.15;;;7.20;;
18473;SDS011;30265;52.408;13.500;2023-05-10T20:57:50;11.63;;;6.30;;
18473;SDS011;30265;52.408;13.500;2023-05-10T21:08:48;12.80;;;7.55;;
18473;SDS011;30265;52.408;13.500;2023-05-10T21:19:28;12.13;;;7.80;;
18473;SDS011;30265;52.408;13.500;2023-05-10T21:30:01;15.43;;;7.60;;
18473;SDS011;30265;52.408;13.500;2023-05-10T21:41:13;10.32;;;7.43;;
18473;SDS011;30265;52.408;13.500;2023-05-10T21:51:53;11.38;;;7.43;;
18473;SDS011;30265;52.408;13.500;2023-05-10T22:02:46;11.38;;;7.00;;
18473;SDS011;30265;52.408;13.500;2023-05-10T22:13:36;11.48;;;6.90;;
18473;SDS011;30265;52.408;13.500;2023-05-10T22:24:13;11.17;;;7.77;;
18473;SDS011;30265;52.408;13.500;2023-05-10T22:34:34;26.05;;;11.27;;
18473;SDS011;30265;52.408;13.500;2023-05-10T22:44:58;13.73;;;8.98;;
18473;SDS011;30265;52.408;13.500;2023-05-10T22:55:20;18.55;;;10.25;;
18473;SDS011;30265;52.408;13.500;2023-05-10T23:05:43;15.65;;;8.10;;
18473;SDS011;30265;52.408;13.500;2023-05-10T23:16:05;16.42;;;8.80;;
18473;SDS011;30265;52.408;13.500;2023-05-10T23:26:29;15.00;;;7.55;;
18473;SDS011;30265;52.408;13.500;2023-05-10T23:36:51;14.77;;;8.15;;
18473;SDS011;30265;52.408;13.500;2023-05-10T23:47:14;13.80;;;7.30;;
18473;SDS011;30265;52.408;13.500;2023-05-10T23:57:35;11.40;;;7.68;;
